Eagle Valley, Nevada
Current Conditions -  °F | °C
As of 2:53 AM on Friday 31 Oct 2014 (Local Time) from KELY Reporting Station
Clear Clear  
Wind Chill: 50°   Ceiling: Unl
Heat Index: 50°   Visibility: 10mi
Dew Point: 25°   Wind: 15mph
Humidity: 38%   Direction: 190°S
Pressure: 30.09"   Gusts: NA
Location:  38.2635°N, 114.484°W
Report Text: KELY 310953Z AUTO 19013KT 10SM CLR 10/M04 A3009 RMK AO2 SLP104 T01001039
Loading
Personal Weather Stations






























Interactive Weather Map
Tropical Storm Tracking
New forecast layout! Learn more

10-Day Weather Forecast

Advertisements
Track Severe Weather on mobile